Time;durP1;ratioP1;P1;durP2;ratioP2;P2;SDS_P1;SDS_P2;PMS_P1;PMS_P2;Temp;Humidity;BMP_temperature;BMP_pressure;BME280_temperature;BME280_humidity;BME280_pressure;Samples;Min_cycle;Max_cycle;Signal;HPM_P1;HPM_P2
2024/03/20 00:00:27;;;;;;;10.27;6.30;;;8.50;99.90;;;;;;5087865;28;20249;-72
2024/03/20 00:02:56;;;;;;;7.80;6.80;;;8.50;99.90;;;;;;5087507;28;20289;-72
2024/03/20 00:05:23;;;;;;;7.23;6.53;;;8.50;99.90;;;;;;5087715;28;20195;-71
2024/03/20 00:07:50;;;;;;;8.27;7.07;;;8.50;99.90;;;;;;5087475;28;20214;-72
2024/03/20 00:10:17;;;;;;;8.77;6.97;;;8.50;99.90;;;;;;5087166;28;20732;-71
2024/03/20 00:12:44;;;;;;;7.77;7.00;;;8.50;99.90;;;;;;5087625;28;20989;-71
2024/03/20 00:15:11;;;;;;;8.63;7.50;;;8.50;99.90;;;;;;5086871;28;20317;-71
2024/03/20 00:17:38;;;;;;;9.20;6.77;;;8.40;99.90;;;;;;5087839;28;20261;-71
2024/03/20 00:20:08;;;;;;;7.77;6.70;;;8.40;99.90;;;;;;5087744;28;20241;-71
2024/03/20 00:22:35;;;;;;;9.27;6.87;;;8.40;99.90;;;;;;5086037;28;20645;-72
2024/03/20 00:25:03;;;;;;;7.80;7.00;;;8.40;99.90;;;;;;5086307;28;20266;-73
2024/03/20 00:27:30;;;;;;;8.40;7.50;;;8.40;99.90;;;;;;5087326;28;20209;-73
2024/03/20 00:29:57;;;;;;;7.30;6.60;;;8.40;99.90;;;;;;5087204;28;20207;-72
2024/03/20 00:32:23;;;;;;;8.00;7.20;;;8.40;99.90;;;;;;5084997;28;20301;-72
2024/03/20 00:34:50;;;;;;;7.87;7.07;;;8.30;99.90;;;;;;5087162;28;20585;-72
2024/03/20 00:37:18;;;;;;;8.90;7.33;;;8.30;99.90;;;;;;5086671;28;20309;-72
2024/03/20 00:39:44;;;;;;;7.70;6.90;;;8.30;99.90;;;;;;5087042;28;20885;-72
2024/03/20 00:42:11;;;;;;;7.53;6.83;;;8.20;99.90;;;;;;5087279;28;20701;-72
2024/03/20 00:44:38;;;;;;;7.67;6.97;;;8.20;99.90;;;;;;5086902;28;20322;-72
2024/03/20 00:47:05;;;;;;;7.90;7.10;;;8.20;99.90;;;;;;5087068;28;20294;-72
2024/03/20 00:49:32;;;;;;;9.47;7.23;;;8.20;99.90;;;;;;5086927;28;20656;-73
2024/03/20 00:51:59;;;;;;;8.40;7.10;;;8.20;99.90;;;;;;5086798;28;20283;-72
2024/03/20 00:54:27;;;;;;;7.53;6.83;;;8.10;99.90;;;;;;5086895;28;20321;-72
2024/03/20 00:56:53;;;;;;;7.33;6.63;;;8.10;99.90;;;;;;5087015;28;20217;-72
2024/03/20 00:59:20;;;;;;;7.57;6.87;;;8.10;99.90;;;;;;5082960;28;20207;-72
2024/03/20 01:01:48;;;;;;;8.03;7.23;;;8.00;99.90;;;;;;5069150;28;20215;-72
2024/03/20 01:04:16;;;;;;;7.03;6.43;;;8.00;99.90;;;;;;5086437;28;20325;-72
2024/03/20 01:06:44;;;;;;;6.87;6.17;;;8.00;99.90;;;;;;5086849;28;20202;-73
2024/03/20 01:09:11;;;;;;;7.73;7.03;;;8.00;99.90;;;;;;5086609;28;20580;-73
2024/03/20 01:11:39;;;;;;;9.40;7.27;;;8.00;99.90;;;;;;5086024;28;20213;-73
2024/03/20 01:14:06;;;;;;;7.07;6.47;;;8.00;99.90;;;;;;5086750;28;20328;-73
2024/03/20 01:16:33;;;;;;;7.37;6.57;;;7.90;99.90;;;;;;5086381;28;20305;-72
2024/03/20 01:19:00;;;;;;;7.37;6.70;;;7.90;99.90;;;;;;5086708;28;20209;-73
2024/03/20 01:21:27;;;;;;;8.73;6.40;;;7.90;99.90;;;;;;5086207;28;20294;-73
2024/03/20 01:23:54;;;;;;;6.57;6.07;;;7.90;99.90;;;;;;5086046;28;20263;-73
2024/03/20 01:26:22;;;;;;;6.60;6.10;;;7.80;99.90;;;;;;5086364;28;20289;-72
2024/03/20 01:28:50;;;;;;;6.60;6.10;;;7.80;99.90;;;;;;5086660;28;20237;-72
2024/03/20 01:31:17;;;;;;;7.27;6.10;;;7.80;99.90;;;;;;5086663;28;20207;-72
2024/03/20 01:33:44;;;;;;;7.23;6.53;;;7.70;99.90;;;;;;5086488;28;20238;-72
2024/03/20 01:36:11;;;;;;;7.27;6.57;;;7.70;99.90;;;;;;5088650;28;20203;-72
2024/03/20 01:38:38;;;;;;;8.40;6.47;;;7.70;99.90;;;;;;5090071;28;20222;-73
2024/03/20 01:41:05;;;;;;;8.43;6.53;;;7.70;99.90;;;;;;5090547;28;20230;-72
2024/03/20 01:43:32;;;;;;;7.70;6.43;;;7.70;99.90;;;;;;5090343;28;20289;-72
2024/03/20 01:46:24;;;;;;;7.60;6.80;;;7.70;99.90;;;;;;5090311;28;20658;-72
2024/03/20 01:48:51;;;;;;;8.87;6.80;;;7.60;99.90;;;;;;5090000;28;20281;-72
2024/03/20 01:51:18;;;;;;;7.17;6.47;;;7.60;99.90;;;;;;5088629;28;20230;-72
2024/03/20 01:53:46;;;;;;;6.67;5.97;;;7.60;99.90;;;;;;5090328;28;20274;-71
2024/03/20 01:56:13;;;;;;;7.03;6.33;;;7.60;99.90;;;;;;5089788;28;20290;-71
2024/03/20 01:58:39;;;;;;;6.53;5.83;;;7.60;99.90;;;;;;5090377;28;20225;-71
2024/03/20 02:01:08;;;;;;;7.20;6.50;;;7.50;99.90;;;;;;5090295;28;20541;-71
2024/03/20 02:03:35;;;;;;;8.10;7.17;;;7.50;99.90;;;;;;5071757;28;20290;-71
2024/03/20 02:06:01;;;;;;;7.80;7.10;;;7.50;99.90;;;;;;5072586;28;20323;-71
2024/03/20 02:08:28;;;;;;;9.27;6.87;;;7.50;99.90;;;;;;5089410;28;20306;-71
2024/03/20 02:10:55;;;;;;;7.40;6.70;;;7.50;99.90;;;;;;5090152;28;20285;-71
2024/03/20 02:13:22;;;;;;;8.30;7.07;;;7.40;99.90;;;;;;5089643;28;20302;-71
2024/03/20 02:15:49;;;;;;;9.20;7.07;;;7.40;99.90;;;;;;5089960;28;20289;-72
2024/03/20 02:18:17;;;;;;;7.30;6.70;;;7.40;99.90;;;;;;5089429;28;20213;-72
2024/03/20 02:20:44;;;;;;;7.50;6.70;;;7.40;99.90;;;;;;5089793;28;20211;-72
2024/03/20 02:23:12;;;;;;;7.50;6.70;;;7.40;99.90;;;;;;5089073;28;20295;-75
2024/03/20 02:25:39;;;;;;;7.40;6.70;;;7.40;99.90;;;;;;5089383;28;20326;-72
2024/03/20 02:28:07;;;;;;;7.80;7.10;;;7.40;99.90;;;;;;5089604;28;20238;-71
2024/03/20 02:30:34;;;;;;;7.70;7.00;;;7.40;99.90;;;;;;5089442;28;20211;-72
2024/03/20 02:33:01;;;;;;;7.90;7.20;;;7.40;99.90;;;;;;5076752;28;20215;-71
2024/03/20 02:35:28;;;;;;;7.40;6.77;;;7.40;99.90;;;;;;5069147;28;20292;-72
2024/03/20 02:37:54;;;;;;;7.07;6.40;;;7.40;99.90;;;;;;5070146;28;20235;-72
2024/03/20 02:40:23;;;;;;;7.27;6.57;;;7.40;99.90;;;;;;5068986;28;20294;-72
2024/03/20 02:42:50;;;;;;;6.83;6.20;;;7.40;99.90;;;;;;5068959;28;20208;-72
2024/03/20 02:45:17;;;;;;;7.53;6.73;;;7.40;99.90;;;;;;5068522;28;20317;-72
2024/03/20 02:47:43;;;;;;;7.30;6.70;;;7.40;99.90;;;;;;5068206;28;20207;-72
2024/03/20 02:50:10;;;;;;;7.87;6.63;;;7.40;99.90;;;;;;5069004;28;20203;-72
2024/03/20 02:52:37;;;;;;;8.07;6.37;;;7.40;99.90;;;;;;5083876;28;20286;-72
2024/03/20 02:55:05;;;;;;;8.10;6.77;;;7.40;99.90;;;;;;5088908;28;20294;-72
2024/03/20 02:57:33;;;;;;;7.13;6.47;;;7.30;99.90;;;;;;5088561;28;20245;-72
2024/03/20 03:00:00;;;;;;;8.50;7.30;;;7.30;99.90;;;;;;5088796;28;20268;-72
2024/03/20 03:02:27;;;;;;;7.83;7.13;;;7.30;99.90;;;;;;5088893;28;20649;-72
2024/03/20 03:04:54;;;;;;;7.43;6.60;;;7.30;99.90;;;;;;5088466;28;20265;-72
2024/03/20 03:07:21;;;;;;;7.83;7.03;;;7.30;99.90;;;;;;5088117;28;20226;-72
2024/03/20 03:09:47;;;;;;;7.90;7.13;;;7.30;99.90;;;;;;5086381;28;20265;-71
2024/03/20 03:12:14;;;;;;;7.73;7.13;;;7.30;99.90;;;;;;5088422;28;20257;-72
2024/03/20 03:14:42;;;;;;;9.47;7.43;;;7.30;99.90;;;;;;5087765;28;20712;-73
2024/03/20 03:17:09;;;;;;;8.60;7.53;;;7.30;99.90;;;;;;5088130;28;20293;-72
2024/03/20 03:19:36;;;;;;;7.30;6.60;;;7.30;99.90;;;;;;5086736;28;20229;-73
2024/03/20 03:22:03;;;;;;;8.30;7.30;;;7.30;99.90;;;;;;5088296;28;20225;-70
2024/03/20 03:24:30;;;;;;;8.30;7.37;;;7.30;99.90;;;;;;5087680;28;20314;-72
2024/03/20 03:26:57;;;;;;;8.17;7.37;;;7.30;99.90;;;;;;5088211;28;20234;-72
2024/03/20 03:29:24;;;;;;;9.00;7.30;;;7.30;99.90;;;;;;5087632;28;20447;-72
2024/03/20 03:31:51;;;;;;;8.13;7.33;;;7.30;99.90;;;;;;5069481;28;20317;-72
2024/03/20 03:34:18;;;;;;;8.00;7.20;;;7.20;99.90;;;;;;5084912;28;20299;-72
2024/03/20 03:36:45;;;;;;;9.60;6.97;;;7.20;99.90;;;;;;5085113;28;20217;-72
2024/03/20 03:39:12;;;;;;;9.93;7.07;;;7.20;99.90;;;;;;5085860;28;20212;-72
2024/03/20 03:41:39;;;;;;;9.20;7.57;;;7.20;99.90;;;;;;5085944;28;20296;-72
2024/03/20 03:44:05;;;;;;;11.90;7.70;;;7.20;99.90;;;;;;5086131;28;20946;-72
2024/03/20 03:46:33;;;;;;;9.53;7.10;;;7.20;99.90;;;;;;5085881;28;20289;-72
2024/03/20 03:49:01;;;;;;;8.20;7.40;;;7.20;99.90;;;;;;5085570;28;20574;-72
2024/03/20 03:51:30;;;;;;;10.40;7.80;;;7.20;99.90;;;;;;5067112;28;20199;-73
2024/03/20 03:53:57;;;;;;;7.77;6.80;;;7.20;99.90;;;;;;5073035;28;20691;-74
2024/03/20 03:56:24;;;;;;;7.80;7.10;;;7.20;99.90;;;;;;5086753;28;20199;-74
2024/03/20 03:58:51;;;;;;;8.30;7.40;;;7.20;99.90;;;;;;5086713;28;20205;-73
2024/03/20 04:01:17;;;;;;;9.93;7.43;;;7.20;99.90;;;;;;5085584;28;20301;-74
2024/03/20 04:03:44;;;;;;;10.97;7.63;;;7.20;99.90;;;;;;5086130;28;20657;-74
2024/03/20 04:06:12;;;;;;;9.70;7.93;;;7.20;99.90;;;;;;5086768;28;20239;-74
2024/03/20 04:08:39;;;;;;;8.67;7.87;;;7.10;99.90;;;;;;5079320;28;20219;-74
2024/03/20 04:11:07;;;;;;;8.83;7.90;;;7.10;99.90;;;;;;5067206;28;20254;-73
2024/03/20 04:13:34;;;;;;;9.07;7.47;;;7.10;99.90;;;;;;5066942;28;20322;-74
2024/03/20 04:16:01;;;;;;;8.23;7.07;;;7.10;99.90;;;;;;5066982;28;20624;-74
2024/03/20 04:18:27;;;;;;;11.50;7.73;;;7.10;99.90;;;;;;5066744;28;20643;-74
2024/03/20 04:20:54;;;;;;;10.97;7.77;;;7.10;99.90;;;;;;5067016;28;20291;-73
2024/03/20 04:23:22;;;;;;;9.57;7.63;;;7.10;99.90;;;;;;5066904;28;20211;-74
2024/03/20 04:25:49;;;;;;;8.93;8.03;;;7.00;99.90;;;;;;5066912;28;20262;-74
2024/03/20 04:28:16;;;;;;;8.70;7.80;;;7.00;99.90;;;;;;5066496;28;20203;-74
2024/03/20 04:30:43;;;;;;;9.67;8.53;;;7.00;99.90;;;;;;5077227;28;20289;-73
2024/03/20 04:33:10;;;;;;;8.73;7.87;;;7.00;99.90;;;;;;5087228;28;20293;-74
2024/03/20 04:35:37;;;;;;;10.53;7.77;;;7.00;99.90;;;;;;5087282;28;20301;-74
2024/03/20 04:38:04;;;;;;;8.40;7.60;;;7.00;99.90;;;;;;5086412;28;20329;-74
2024/03/20 04:40:34;;;;;;;10.60;8.57;;;7.00;99.90;;;;;;5086599;28;20744;-73
2024/03/20 04:43:01;;;;;;;9.37;7.73;;;7.00;99.90;;;;;;5087657;28;20210;-72
2024/03/20 04:45:28;;;;;;;9.97;7.20;;;7.00;99.90;;;;;;5086591;28;20317;-72
2024/03/20 04:47:54;;;;;;;9.70;8.10;;;7.10;99.90;;;;;;5086945;28;20272;-73
2024/03/20 04:50:21;;;;;;;10.10;8.03;;;7.00;99.90;;;;;;5087146;28;20206;-74
2024/03/20 04:52:48;;;;;;;8.90;7.83;;;7.00;99.90;;;;;;5086714;28;20238;-74
2024/03/20 04:55:15;;;;;;;9.80;8.47;;;7.00;99.90;;;;;;5086110;28;20206;-72
2024/03/20 04:57:43;;;;;;;8.70;7.87;;;7.00;99.90;;;;;;5086582;28;20812;-74
2024/03/20 05:00:14;;;;;;;9.37;8.47;;;7.00;99.90;;;;;;5087369;28;20210;-74
2024/03/20 05:02:41;;;;;;;8.40;7.63;;;7.00;99.90;;;;;;5076808;28;20211;-73
2024/03/20 05:05:09;;;;;;;9.00;8.10;;;7.00;99.90;;;;;;5082408;28;20235;-74
2024/03/20 05:07:36;;;;;;;8.30;7.47;;;7.00;99.90;;;;;;5086585;28;20203;-74
2024/03/20 05:10:04;;;;;;;9.60;7.77;;;7.00;99.90;;;;;;5087265;28;20238;-73
2024/03/20 05:12:31;;;;;;;9.10;8.13;;;7.00;99.90;;;;;;5090998;28;20761;-74
2024/03/20 05:14:59;;;;;;;9.10;7.70;;;7.00;99.90;;;;;;5090650;28;20663;-73
2024/03/20 05:17:26;;;;;;;9.93;7.70;;;7.00;99.90;;;;;;5090766;28;20333;-74
2024/03/20 05:19:53;;;;;;;9.80;7.90;;;7.00;99.90;;;;;;5090759;28;20313;-74
2024/03/20 05:22:20;;;;;;;9.13;7.80;;;7.00;99.90;;;;;;5090869;28;20298;-74
2024/03/20 05:24:49;;;;;;;9.13;8.00;;;7.00;99.90;;;;;;5090439;28;20301;-74
2024/03/20 05:27:16;;;;;;;9.07;8.17;;;7.00;99.90;;;;;;5090840;28;20198;-73
2024/03/20 05:29:42;;;;;;;10.47;8.00;;;7.00;99.90;;;;;;5090716;28;20226;-72
2024/03/20 05:32:10;;;;;;;9.03;8.03;;;7.10;99.90;;;;;;5090700;28;20319;-73
2024/03/20 05:34:36;;;;;;;8.50;7.70;;;7.00;99.90;;;;;;5090513;28;20641;-74
2024/03/20 05:37:03;;;;;;;10.13;8.00;;;7.00;99.90;;;;;;5090481;28;20334;-72
2024/03/20 05:39:29;;;;;;;10.73;9.00;;;7.00;99.90;;;;;;5090237;28;20214;-72
2024/03/20 05:41:56;;;;;;;8.80;7.93;;;7.00;99.90;;;;;;5090062;28;20761;-73
2024/03/20 05:44:22;;;;;;;10.47;8.00;;;7.00;99.90;;;;;;5090536;28;20207;-72
2024/03/20 05:46:51;;;;;;;9.70;8.30;;;7.10;99.90;;;;;;5090104;28;20791;-72
2024/03/20 05:49:18;;;;;;;10.50;7.80;;;7.00;99.90;;;;;;5090022;28;20225;-72
2024/03/20 05:51:45;;;;;;;11.83;8.17;;;7.00;99.90;;;;;;5088122;28;20294;-72
2024/03/20 05:54:11;;;;;;;9.27;8.37;;;7.00;99.90;;;;;;5087321;28;20665;-73
2024/03/20 05:56:38;;;;;;;12.97;8.33;;;7.10;99.90;;;;;;5089832;28;20209;-73
2024/03/20 05:59:04;;;;;;;9.43;8.07;;;7.10;99.90;;;;;;5089883;28;20248;-72
2024/03/20 06:01:31;;;;;;;10.77;8.67;;;7.10;99.90;;;;;;5089114;28;20247;-72
2024/03/20 06:03:57;;;;;;;9.13;8.20;;;7.10;99.90;;;;;;5069222;28;20208;-73
2024/03/20 06:06:27;;;;;;;9.77;8.47;;;7.10;99.90;;;;;;5069288;28;20235;-73
2024/03/20 06:08:53;;;;;;;10.13;8.30;;;7.20;99.90;;;;;;5069561;28;20665;-73
2024/03/20 06:11:21;;;;;;;8.97;8.07;;;7.20;99.90;;;;;;5069055;28;20199;-73
2024/03/20 06:13:47;;;;;;;8.90;8.10;;;7.20;99.90;;;;;;5069292;28;20223;-72
2024/03/20 06:16:14;;;;;;;9.50;8.53;;;7.20;99.90;;;;;;5069043;28;20649;-72
2024/03/20 06:18:40;;;;;;;11.30;8.63;;;7.20;99.90;;;;;;5069126;28;20298;-74
2024/03/20 06:21:07;;;;;;;11.97;8.63;;;7.20;99.90;;;;;;5068996;28;20691;-73
2024/03/20 06:23:35;;;;;;;9.90;8.90;;;7.20;99.90;;;;;;5082366;28;20293;-74
2024/03/20 06:26:02;;;;;;;10.70;8.10;;;7.30;99.90;;;;;;5089046;28;20278;-74
2024/03/20 06:28:27;;;;;;;36.10;10.43;;;7.30;99.90;;;;;;5088944;28;20230;-74
2024/03/20 06:30:54;;;;;;;13.40;8.77;;;7.20;99.90;;;;;;5089173;28;20299;-74
2024/03/20 06:33:20;;;;;;;10.57;8.20;;;7.20;99.90;;;;;;5089110;28;20234;-74
2024/03/20 06:35:47;;;;;;;10.53;8.53;;;7.20;99.90;;;;;;5089506;28;20291;-74
2024/03/20 06:38:13;;;;;;;12.17;8.63;;;7.20;99.90;;;;;;5089018;28;20231;-74
2024/03/20 06:40:44;;;;;;;9.47;8.30;;;7.30;99.90;;;;;;5089287;28;20226;-74
2024/03/20 06:43:10;;;;;;;12.37;9.13;;;7.20;99.90;;;;;;5089401;28;20195;-74
2024/03/20 06:45:41;;;;;;;10.30;9.13;;;7.20;99.90;;;;;;5089063;28;20245;-74
2024/03/20 06:48:08;;;;;;;9.80;8.70;;;7.30;99.90;;;;;;5089241;28;20195;-74
2024/03/20 06:50:35;;;;;;;9.27;8.37;;;7.30;99.90;;;;;;5088551;28;20595;-74
2024/03/20 06:53:04;;;;;;;12.70;8.60;;;7.30;99.90;;;;;;5089065;28;20289;-74
2024/03/20 06:55:31;;;;;;;9.57;8.67;;;7.30;99.90;;;;;;5088284;28;20207;-74
2024/03/20 06:57:58;;;;;;;10.37;8.93;;;7.30;99.90;;;;;;5088550;28;20213;-74
2024/03/20 07:00:27;;;;;;;12.03;9.03;;;7.40;99.90;;;;;;5088844;28;20210;-74
2024/03/20 07:02:55;;;;;;;12.13;9.57;;;7.40;99.90;;;;;;5088685;28;20210;-74
2024/03/20 07:05:22;;;;;;;11.97;8.83;;;7.50;99.90;;;;;;5088258;28;20222;-74
2024/03/20 07:07:48;;;;;;;11.30;9.33;;;7.50;99.90;;;;;;5088943;28;20207;-74
2024/03/20 07:10:15;;;;;;;10.67;9.20;;;7.50;99.90;;;;;;5088257;28;20267;-74
2024/03/20 07:12:41;;;;;;;10.60;9.00;;;7.50;99.90;;;;;;5088359;28;20621;-74
2024/03/20 07:15:12;;;;;;;10.47;9.13;;;7.50;99.90;;;;;;5088508;28;20239;-74
2024/03/20 07:17:38;;;;;;;14.50;8.90;;;7.60;99.90;;;;;;5088485;28;20298;-74
2024/03/20 07:20:09;;;;;;;10.10;8.50;;;7.60;99.90;;;;;;5088372;28;20297;-74
2024/03/20 07:22:35;;;;;;;10.27;8.93;;;7.50;99.90;;;;;;5088512;28;20199;-74
2024/03/20 07:25:02;;;;;;;10.37;9.30;;;7.50;99.90;;;;;;5088178;28;20211;-74
2024/03/20 07:27:28;;;;;;;10.80;9.70;;;7.50;99.90;;;;;;5088394;28;20474;-74
2024/03/20 07:29:55;;;;;;;10.47;9.20;;;7.50;99.90;;;;;;5088234;28;20195;-74
2024/03/20 07:32:23;;;;;;;11.10;9.10;;;7.60;99.90;;;;;;5087835;28;20218;-74
2024/03/20 07:34:49;;;;;;;10.67;9.57;;;7.60;99.90;;;;;;5087695;28;20245;-74
2024/03/20 07:37:15;;;;;;;11.10;9.67;;;7.70;99.90;;;;;;5087792;28;20768;-73
2024/03/20 07:39:43;;;;;;;13.77;10.13;;;7.80;99.90;;;;;;5087954;28;20242;-72
2024/03/20 07:42:09;;;;;;;10.83;9.33;;;7.90;99.90;;;;;;5088066;28;20738;-73
2024/03/20 07:44:36;;;;;;;12.73;9.77;;;8.00;99.90;;;;;;5087823;28;20250;-73
2024/03/20 07:47:03;;;;;;;11.87;9.43;;;8.00;99.90;;;;;;5069229;28;20598;-73
2024/03/20 07:49:31;;;;;;;10.30;9.30;;;8.20;99.90;;;;;;5067080;28;20213;-73
2024/03/20 07:51:57;;;;;;;10.90;8.90;;;8.20;99.90;;;;;;5067544;28;20684;-73
2024/03/20 07:54:24;;;;;;;11.90;10.40;;;8.30;99.90;;;;;;5081138;28;20298;-73
2024/03/20 07:56:51;;;;;;;12.33;10.43;;;8.40;99.90;;;;;;5087527;28;20207;-73
2024/03/20 07:59:18;;;;;;;11.37;9.63;;;8.30;99.90;;;;;;5087613;28;20234;-72
2024/03/20 08:01:45;;;;;;;11.13;9.90;;;8.40;99.90;;;;;;5087479;28;20677;-72
2024/03/20 08:04:12;;;;;;;10.43;9.23;;;8.40;99.90;;;;;;5087465;28;20209;-73
2024/03/20 08:06:40;;;;;;;10.50;9.00;;;8.40;99.90;;;;;;5087378;28;20754;-73
2024/03/20 08:09:07;;;;;;;12.87;9.77;;;8.50;99.90;;;;;;5087348;28;20210;-73
2024/03/20 08:11:34;;;;;;;10.17;9.03;;;8.60;99.90;;;;;;5087082;28;20681;-73
2024/03/20 08:14:07;;;;;;;10.17;9.17;;;8.60;99.90;;;;;;5087136;28;20246;-73
2024/03/20 08:16:34;;;;;;;9.77;8.87;;;8.80;99.90;;;;;;5087046;28;20290;-72
2024/03/20 08:19:01;;;;;;;10.27;9.27;;;8.80;99.90;;;;;;5087691;28;20243;-72
2024/03/20 08:21:27;;;;;;;11.53;9.47;;;8.90;99.90;;;;;;5086990;28;20204;-73
2024/03/20 08:23:56;;;;;;;9.77;8.47;;;9.00;99.90;;;;;;5087501;28;20207;-73
2024/03/20 08:26:22;;;;;;;11.73;9.70;;;9.00;99.90;;;;;;5086643;28;20231;-72
2024/03/20 08:28:48;;;;;;;10.70;9.53;;;9.20;99.90;;;;;;5087057;28;20819;-73
2024/03/20 08:31:14;;;;;;;10.57;9.47;;;9.30;99.90;;;;;;5087096;28;20301;-73
2024/03/20 08:33:41;;;;;;;13.30;9.20;;;9.40;99.90;;;;;;5087118;28;20297;-73
2024/03/20 08:36:08;;;;;;;9.70;8.70;;;9.50;99.90;;;;;;5087079;28;20730;-72
2024/03/20 08:38:36;;;;;;;10.37;8.97;;;9.50;99.90;;;;;;5086938;28;20282;-73
2024/03/20 08:41:03;;;;;;;9.73;8.73;;;9.60;99.90;;;;;;5086423;28;20211;-73
2024/03/20 08:43:32;;;;;;;10.07;8.20;;;9.60;99.90;;;;;;5066439;28;20207;-73
2024/03/20 08:45:57;;;;;;;9.37;8.47;;;9.70;99.90;;;;;;5065829;28;20253;-73
2024/03/20 08:48:25;;;;;;;10.10;9.10;;;9.80;99.90;;;;;;5067968;28;20721;-73
2024/03/20 08:50:51;;;;;;;9.77;8.77;;;9.90;99.90;;;;;;5086535;28;20298;-73
2024/03/20 08:53:19;;;;;;;9.90;8.93;;;10.00;99.90;;;;;;5086330;28;20305;-73
2024/03/20 08:55:47;;;;;;;10.93;8.77;;;10.10;99.90;;;;;;5086622;28;20280;-74
2024/03/20 08:58:16;;;;;;;11.77;8.47;;;10.20;99.90;;;;;;5086764;28;20214;-73
2024/03/20 09:00:42;;;;;;;8.93;8.03;;;10.20;99.90;;;;;;5086538;28;20321;-73
2024/03/20 09:03:10;;;;;;;8.80;7.83;;;10.30;99.90;;;;;;5086468;28;20217;-73
2024/03/20 09:05:35;;;;;;;9.97;8.73;;;10.30;99.90;;;;;;5086350;28;20326;-72
2024/03/20 09:08:02;;;;;;;10.13;8.33;;;10.50;99.90;;;;;;5086960;28;20293;-73
2024/03/20 09:10:29;;;;;;;10.77;7.70;;;10.50;99.90;;;;;;5086280;28;20338;-72
2024/03/20 09:12:56;;;;;;;8.27;7.47;;;10.70;99.90;;;;;;5086694;28;20321;-73
2024/03/20 09:15:23;;;;;;;9.40;7.67;;;10.80;99.90;;;;;;5086040;28;20231;-72
2024/03/20 09:17:52;;;;;;;8.13;7.20;;;10.90;99.90;;;;;;5086512;28;20227;-73
2024/03/20 09:20:19;;;;;;;9.07;8.10;;;10.90;99.90;;;;;;5086333;28;20206;-73
2024/03/20 09:22:47;;;;;;;9.60;7.77;;;11.10;99.90;;;;;;5087023;28;20206;-74
2024/03/20 09:25:13;;;;;;;7.63;6.93;;;11.10;99.90;;;;;;5086332;28;20202;-74
2024/03/20 09:27:40;;;;;;;8.37;7.27;;;11.20;99.90;;;;;;5086269;28;20238;-73
2024/03/20 09:30:08;;;;;;;8.93;7.70;;;11.30;99.90;;;;;;5086621;28;20287;-74
2024/03/20 09:32:36;;;;;;;7.67;6.97;;;11.30;99.90;;;;;;5077313;28;20207;-74
2024/03/20 09:35:02;;;;;;;7.93;6.13;;;11.40;99.90;;;;;;5066070;28;20298;-74
2024/03/20 09:37:30;;;;;;;7.47;6.63;;;11.50;99.70;;;;;;5069772;28;20677;-73
2024/03/20 09:39:58;;;;;;;8.17;6.80;;;11.50;99.90;;;;;;5086023;28;20203;-74
2024/03/20 09:42:24;;;;;;;7.43;6.77;;;11.50;99.90;;;;;;5086521;28;20217;-74
2024/03/20 09:44:51;;;;;;;8.27;7.10;;;11.60;99.90;;;;;;5086313;28;20234;-74
2024/03/20 09:47:18;;;;;;;8.20;7.40;;;11.70;99.90;;;;;;5086124;28;20233;-74
2024/03/20 09:49:48;;;;;;;8.90;6.47;;;11.80;99.90;;;;;;5086644;28;20290;-74
2024/03/20 09:52:16;;;;;;;8.47;6.00;;;11.80;99.90;;;;;;5086159;28;20203;-74
2024/03/20 09:54:42;;;;;;;7.43;6.70;;;11.90;99.90;;;;;;5086242;28;20211;-74
2024/03/20 09:57:14;;;;;;;6.70;6.10;;;11.90;99.90;;;;;;5088534;28;20210;-74
2024/03/20 09:59:41;;;;;;;9.10;6.53;;;11.90;99.90;;;;;;5089724;28;20764;-74
2024/03/20 10:02:09;;;;;;;8.37;6.70;;;12.00;99.90;;;;;;5090093;28;20257;-74
2024/03/20 10:04:36;;;;;;;11.53;6.60;;;12.10;99.90;;;;;;5089856;28;20199;-74
2024/03/20 10:07:12;;;;;;;7.50;6.77;;;12.30;99.90;;;;;;5089621;28;20977;-73
2024/03/20 10:09:38;;;;;;;7.30;6.43;;;12.30;99.90;;;;;;5089261;28;20201;-73
2024/03/20 10:12:06;;;;;;;7.57;5.93;;;12.50;99.90;;;;;;5090135;28;20207;-74
2024/03/20 10:14:34;;;;;;;7.97;6.00;;;12.40;99.90;;;;;;5089275;28;20330;-73
2024/03/20 10:17:11;;;;;;;6.93;5.80;;;12.60;99.90;;;;;;5089863;28;20214;-72
2024/03/20 10:19:37;;;;;;;7.40;5.60;;;12.60;99.90;;;;;;5089411;28;20564;-73
2024/03/20 10:22:05;;;;;;;5.70;5.30;;;12.70;99.90;;;;;;5089839;28;20269;-73
2024/03/20 10:24:32;;;;;;;6.00;5.40;;;12.80;99.90;;;;;;5089105;28;20301;-73
2024/03/20 10:27:01;;;;;;;6.00;5.50;;;12.90;99.90;;;;;;5089272;28;20321;-73
2024/03/20 10:29:29;;;;;;;6.27;5.37;;;13.00;99.90;;;;;;5089547;28;20202;-73
2024/03/20 10:31:57;;;;;;;5.70;5.20;;;13.00;99.90;;;;;;5089350;28;20215;-73
2024/03/20 10:34:24;;;;;;;5.83;5.33;;;13.30;99.90;;;;;;5088935;28;20314;-73
2024/03/20 10:36:52;;;;;;;7.00;6.20;;;13.40;99.90;;;;;;5089131;28;20223;-73
2024/03/20 10:39:23;;;;;;;7.30;6.60;;;13.60;99.90;;;;;;5089105;28;20323;-73
2024/03/20 10:41:52;;;;;;;15.63;7.47;;;13.70;99.90;;;;;;5089149;28;20276;-73
2024/03/20 10:44:20;;;;;;;7.17;6.47;;;13.80;99.90;;;;;;5088612;28;20237;-73
2024/03/20 10:46:48;;;;;;;8.77;6.73;;;13.80;99.90;;;;;;5088120;28;20253;-73
2024/03/20 10:49:18;;;;;;;8.53;7.20;;;13.80;99.90;;;;;;5089012;28;20321;-73
2024/03/20 10:51:45;;;;;;;8.40;6.53;;;13.80;99.90;;;;;;5088893;28;20669;-73
2024/03/20 10:54:12;;;;;;;10.13;7.10;;;13.90;99.90;;;;;;5088852;28;20268;-73
2024/03/20 10:56:46;;;;;;;7.90;6.87;;;14.00;99.90;;;;;;5088338;28;20211;-73
2024/03/20 10:59:19;;;;;;;10.67;7.73;;;14.10;99.90;;;;;;5088753;28;20274;-73
2024/03/20 11:02:01;;;;;;;8.37;7.57;;;14.20;99.90;;;;;;5088709;28;20279;-73
2024/03/20 11:04:33;;;;;;;7.73;6.87;;;14.30;99.90;;;;;;5088727;28;20615;-73
2024/03/20 11:07:00;;;;;;;7.27;6.50;;;14.40;99.90;;;;;;5088755;28;20234;-73
2024/03/20 11:09:26;;;;;;;8.67;7.30;;;14.40;99.90;;;;;;5087569;28;20237;-73
2024/03/20 11:11:56;;;;;;;7.70;6.90;;;14.50;99.90;;;;;;5088581;28;20207;-72
2024/03/20 11:14:29;;;;;;;9.70;7.63;;;14.50;99.90;;;;;;5087903;28;20241;-73
2024/03/20 11:17:02;;;;;;;9.07;8.00;;;14.40;99.90;;;;;;5088227;28;20199;-73
2024/03/20 11:19:28;;;;;;;9.97;8.40;;;14.40;99.90;;;;;;5088078;28;20278;-73
2024/03/20 11:21:55;;;;;;;8.97;8.07;;;14.40;99.90;;;;;;5088284;28;20220;-73
2024/03/20 11:24:22;;;;;;;12.23;8.67;;;14.40;99.90;;;;;;5088002;28;20264;-73
2024/03/20 11:26:49;;;;;;;9.87;8.23;;;14.50;99.90;;;;;;5088075;28;20756;-73
2024/03/20 11:29:15;;;;;;;11.47;9.03;;;14.50;99.90;;;;;;5088054;28;20199;-73
2024/03/20 11:31:44;;;;;;;12.57;9.33;;;14.60;99.90;;;;;;5086284;28;20218;-73
2024/03/20 11:34:11;;;;;;;11.50;9.47;;;14.70;99.90;;;;;;5067664;28;20294;-73
2024/03/20 11:36:38;;;;;;;13.33;9.30;;;14.70;99.90;;;;;;5068168;28;20604;-73
2024/03/20 11:39:08;;;;;;;10.43;8.13;;;14.80;99.90;;;;;;5078674;28;20203;-73
2024/03/20 11:41:36;;;;;;;11.80;9.57;;;14.90;99.90;;;;;;5087704;28;20218;-73
2024/03/20 11:44:02;;;;;;;11.97;8.97;;;14.80;99.90;;;;;;5088031;28;20602;-73
2024/03/20 11:46:28;;;;;;;9.93;8.93;;;14.80;99.90;;;;;;5087836;28;20233;-73
2024/03/20 11:48:56;;;;;;;9.83;8.17;;;14.90;99.90;;;;;;5087960;28;20825;-73
2024/03/20 11:51:25;;;;;;;10.63;8.90;;;15.10;99.90;;;;;;5087711;28;20202;-74
2024/03/20 11:53:52;;;;;;;9.90;8.63;;;15.20;99.90;;;;;;5087552;28;20207;-73
2024/03/20 11:56:19;;;;;;;9.43;8.43;;;15.40;99.90;;;;;;5087490;28;20294;-73
2024/03/20 11:58:49;;;;;;;10.60;9.50;;;15.40;99.90;;;;;;5087395;28;20301;-73
2024/03/20 12:01:15;;;;;;;9.87;8.83;;;15.50;99.90;;;;;;5086945;28;20215;-73
2024/03/20 12:03:42;;;;;;;11.57;9.63;;;15.60;99.90;;;;;;5087419;28;20301;-73
2024/03/20 12:06:11;;;;;;;12.40;9.30;;;15.70;99.90;;;;;;5087323;28;20206;-73
2024/03/20 12:08:37;;;;;;;10.23;8.63;;;15.70;99.90;;;;;;5087169;28;20218;-73
2024/03/20 12:11:15;;;;;;;10.43;9.43;;;15.80;99.90;;;;;;5087045;28;20210;-73
2024/03/20 12:13:41;;;;;;;11.43;9.27;;;15.90;99.90;;;;;;5086917;28;20234;-73
2024/03/20 12:16:08;;;;;;;10.20;9.07;;;15.90;99.90;;;;;;5087018;28;20696;-73
2024/03/20 12:18:34;;;;;;;10.00;8.90;;;16.00;99.90;;;;;;5087186;28;20202;-73
2024/03/20 12:21:03;;;;;;;9.97;8.80;;;16.00;99.90;;;;;;5087275;28;20576;-73
2024/03/20 12:23:30;;;;;;;9.77;8.63;;;16.10;99.90;;;;;;5086855;28;20199;-73
2024/03/20 12:25:58;;;;;;;10.37;8.93;;;16.10;99.90;;;;;;5087029;28;20359;-73
2024/03/20 12:28:24;;;;;;;17.03;14.30;;;16.30;99.90;;;;;;5086885;28;20243;-73
2024/03/20 12:30:51;;;;;;;11.30;10.07;;;16.40;99.90;;;;;;5087046;28;20213;-73
2024/03/20 12:33:18;;;;;;;11.80;10.60;;;16.50;99.90;;;;;;5072040;28;20306;-73
2024/03/20 12:35:45;;;;;;;14.97;11.50;;;16.50;99.90;;;;;;5081334;28;20203;-73
2024/03/20 12:38:11;;;;;;;12.50;9.20;;;16.60;99.90;;;;;;5086680;28;20602;-73
2024/03/20 12:40:39;;;;;;;9.73;8.70;;;16.70;99.90;;;;;;5086621;28;20207;-73
2024/03/20 12:43:05;;;;;;;9.60;8.77;;;16.80;99.90;;;;;;5087302;28;20203;-74
2024/03/20 12:45:32;;;;;;;12.13;8.83;;;16.90;99.90;;;;;;5086472;28;20211;-74
2024/03/20 12:47:58;;;;;;;11.83;9.37;;;17.00;99.90;;;;;;5086773;28;20701;-73
2024/03/20 12:50:25;;;;;;;13.37;11.97;;;17.10;99.90;;;;;;5086786;28;20271;-73